sensor_id;sensor_type;location;lat;lon;timestamp;temperature;humidity
23495;DHT22;26107;50.832;2.950;2023-12-04T00:05:46;3.70;99.90
23495;DHT22;26107;50.832;2.950;2023-12-04T00:20:47;3.70;99.90
23495;DHT22;26107;50.832;2.950;2023-12-04T00:35:47;3.90;99.90
23495;DHT22;26107;50.832;2.950;2023-12-04T00:50:48;3.70;99.90
23495;DHT22;26107;50.832;2.950;2023-12-04T01:05:50;3.60;99.90
23495;DHT22;26107;50.832;2.950;2023-12-04T01:20:56;3.50;99.90
23495;DHT22;26107;50.832;2.950;2023-12-04T01:35:56;3.50;99.90
23495;DHT22;26107;50.832;2.950;2023-12-04T01:50:57;3.70;99.90
23495;DHT22;26107;50.832;2.950;2023-12-04T02:06:01;3.70;99.90
23495;DHT22;26107;50.832;2.950;2023-12-04T02:21:03;3.90;99.90
23495;DHT22;26107;50.832;2.950;2023-12-04T02:36:07;3.70;99.90
23495;DHT22;26107;50.832;2.950;2023-12-04T02:51:08;3.80;99.90
23495;DHT22;26107;50.832;2.950;2023-12-04T03:06:13;4.00;99.90
23495;DHT22;26107;50.832;2.950;2023-12-04T03:21:18;4.10;99.90
23495;DHT22;26107;50.832;2.950;2023-12-04T03:36:19;4.10;99.90
23495;DHT22;26107;50.832;2.950;2023-12-04T03:51:20;4.10;99.90
23495;DHT22;26107;50.832;2.950;2023-12-04T04:06:24;4.00;99.90
23495;DHT22;26107;50.832;2.950;2023-12-04T04:21:24;4.30;99.90
23495;DHT22;26107;50.832;2.950;2023-12-04T04:36:29;4.20;99.90
23495;DHT22;26107;50.832;2.950;2023-12-04T04:51:33;4.10;99.90
23495;DHT22;26107;50.832;2.950;2023-12-04T05:06:34;4.10;99.90
23495;DHT22;26107;50.832;2.950;2023-12-04T05:21:34;4.00;99.90
23495;DHT22;26107;50.832;2.950;2023-12-04T05:36:35;4.30;99.90
23495;DHT22;26107;50.832;2.950;2023-12-04T05:51:35;4.10;99.90
23495;DHT22;26107;50.832;2.950;2023-12-04T06:06:36;4.30;99.90
23495;DHT22;26107;50.832;2.950;2023-12-04T06:21:39;4.10;99.90
23495;DHT22;26107;50.832;2.950;2023-12-04T06:36:42;4.10;99.90
23495;DHT22;26107;50.832;2.950;2023-12-04T06:51:45;3.90;99.90
23495;DHT22;26107;50.832;2.950;2023-12-04T07:06:45;3.90;99.90
23495;DHT22;26107;50.832;2.950;2023-12-04T07:21:46;3.80;99.90
23495;DHT22;26107;50.832;2.950;2023-12-04T07:36:46;3.70;99.90
23495;DHT22;26107;50.832;2.950;2023-12-04T07:51:48;3.80;99.90
23495;DHT22;26107;50.832;2.950;2023-12-04T08:06:49;3.90;99.90
23495;DHT22;26107;50.832;2.950;2023-12-04T08:21:50;3.90;99.90
23495;DHT22;26107;50.832;2.950;2023-12-04T08:36:50;3.90;99.90
23495;DHT22;26107;50.832;2.950;2023-12-04T08:51:54;4.10;99.90
23495;DHT22;26107;50.832;2.950;2023-12-04T09:06:54;4.20;99.90
23495;DHT22;26107;50.832;2.950;2023-12-04T09:21:55;4.20;99.90
23495;DHT22;26107;50.832;2.950;2023-12-04T09:36:57;4.20;99.90
23495;DHT22;26107;50.832;2.950;2023-12-04T09:52:01;4.20;99.90
23495;DHT22;26107;50.832;2.950;2023-12-04T10:07:04;4.20;99.90
23495;DHT22;26107;50.832;2.950;2023-12-04T10:22:08;4.20;99.90
23495;DHT22;26107;50.832;2.950;2023-12-04T10:37:13;4.40;99.90
23495;DHT22;26107;50.832;2.950;2023-12-04T10:52:14;4.30;99.90
23495;DHT22;26107;50.832;2.950;2023-12-04T11:07:17;4.50;99.90
23495;DHT22;26107;50.832;2.950;2023-12-04T11:22:21;4.70;99.90
23495;DHT22;26107;50.832;2.950;2023-12-04T11:37:22;4.70;99.90
23495;DHT22;26107;50.832;2.950;2023-12-04T11:52:33;5.00;99.90
23495;DHT22;26107;50.832;2.950;2023-12-04T12:07:36;4.90;99.90
23495;DHT22;26107;50.832;2.950;2023-12-04T12:22:38;5.10;99.90
23495;DHT22;26107;50.832;2.950;2023-12-04T12:37:41;5.20;99.90
23495;DHT22;26107;50.832;2.950;2023-12-04T12:52:42;5.30;99.90
23495;DHT22;26107;50.832;2.950;2023-12-04T13:07:43;5.40;99.90
23495;DHT22;26107;50.832;2.950;2023-12-04T13:22:44;5.50;99.90
23495;DHT22;26107;50.832;2.950;2023-12-04T13:37:48;5.60;99.90
23495;DHT22;26107;50.832;2.950;2023-12-04T13:52:55;5.50;99.90
23495;DHT22;26107;50.832;2.950;2023-12-04T14:07:57;5.60;99.90
23495;DHT22;26107;50.832;2.950;2023-12-04T14:23:00;5.70;99.90
23495;DHT22;26107;50.832;2.950;2023-12-04T14:38:01;5.70;99.90
23495;DHT22;26107;50.832;2.950;2023-12-04T14:53:05;5.70;99.90
23495;DHT22;26107;50.832;2.950;2023-12-04T15:08:29;5.60;99.90
23495;DHT22;26107;50.832;2.950;2023-12-04T15:23:48;5.80;99.90
23495;DHT22;26107;50.832;2.950;2023-12-04T15:38:48;5.90;99.90
23495;DHT22;26107;50.832;2.950;2023-12-04T15:53:49;6.00;99.90
23495;DHT22;26107;50.832;2.950;2023-12-04T16:08:51;6.00;99.90
23495;DHT22;26107;50.832;2.950;2023-12-04T16:23:54;6.00;99.90
23495;DHT22;26107;50.832;2.950;2023-12-04T16:38:57;6.10;99.90
23495;DHT22;26107;50.832;2.950;2023-12-04T16:53:58;6.00;99.90
23495;DHT22;26107;50.832;2.950;2023-12-04T17:09:01;6.10;99.90
23495;DHT22;26107;50.832;2.950;2023-12-04T17:24:04;6.20;99.90
23495;DHT22;26107;50.832;2.950;2023-12-04T17:39:07;6.20;99.90
23495;DHT22;26107;50.832;2.950;2023-12-04T17:54:10;6.20;99.90
23495;DHT22;26107;50.832;2.950;2023-12-04T18:09:11;6.30;99.90
23495;DHT22;26107;50.832;2.950;2023-12-04T18:24:11;6.40;99.90
23495;DHT22;26107;50.832;2.950;2023-12-04T18:39:14;6.50;99.90
23495;DHT22;26107;50.832;2.950;2023-12-04T18:54:15;6.60;99.90
23495;DHT22;26107;50.832;2.950;2023-12-04T19:09:15;6.70;99.90
23495;DHT22;26107;50.832;2.950;2023-12-04T19:24:17;6.70;99.90
23495;DHT22;26107;50.832;2.950;2023-12-04T19:39:17;6.80;99.90
23495;DHT22;26107;50.832;2.950;2023-12-04T19:54:18;6.90;99.90
23495;DHT22;26107;50.832;2.950;2023-12-04T20:09:19;7.00;99.90
23495;DHT22;26107;50.832;2.950;2023-12-04T20:24:20;7.10;99.90
23495;DHT22;26107;50.832;2.950;2023-12-04T20:39:20;7.10;99.90
23495;DHT22;26107;50.832;2.950;2023-12-04T20:54:23;7.20;99.90
23495;DHT22;26107;50.832;2.950;2023-12-04T21:09:26;7.30;99.90
23495;DHT22;26107;50.832;2.950;2023-12-04T21:24:29;7.30;99.90
23495;DHT22;26107;50.832;2.950;2023-12-04T21:39:32;7.40;99.90
23495;DHT22;26107;50.832;2.950;2023-12-04T21:54:37;7.40;99.90
23495;DHT22;26107;50.832;2.950;2023-12-04T22:09:38;7.40;99.90
23495;DHT22;26107;50.832;2.950;2023-12-04T22:24:38;7.50;99.90
23495;DHT22;26107;50.832;2.950;2023-12-04T22:39:39;7.50;99.90
23495;DHT22;26107;50.832;2.950;2023-12-04T22:54:39;7.60;99.90
23495;DHT22;26107;50.832;2.950;2023-12-04T23:09:42;7.60;99.90
23495;DHT22;26107;50.832;2.950;2023-12-04T23:24:47;7.70;99.90
23495;DHT22;26107;50.832;2.950;2023-12-04T23:39:47;7.70;99.90
23495;DHT22;26107;50.832;2.950;2023-12-04T23:54:50;7.80;99.90
